Ackermanville, Pennsylvania
Current Conditions -  °F | °C
As of 4:51 AM on Sunday 25 Jan 2015 (Local Time) from KABE Reporting Station
Scattered Clouds Scattered Clouds  
Wind Chill: 28°   Ceiling: Unl
Heat Index: 35°   Visibility: 10mi
Dew Point: 25°   Wind: 9mph
Humidity: 67%   Direction: 260°W
Pressure: 29.64"   Gusts: NA
Location:  40.84°N, 75.22°W
Report Text: KABE 250951Z 26008KT 10SM FEW029 SCT060 02/M04 A2964 RMK AO2 SLP038 T00171039
Loading
Personal Weather Stations






























Interactive Weather Map New forecast layout! Learn more

10-Day Weather Forecast

Advertisements
Track Severe Weather on mobile